createdAt,value
2022-12-27T00:00:26.308Z,94143.56
2022-12-27T00:02:52.910Z,94138.59
2022-12-27T00:05:19.524Z,94136.28
2022-12-27T00:07:46.120Z,94122.91
2022-12-27T00:10:12.557Z,94122.91
2022-12-27T00:12:39.045Z,94127.50
2022-12-27T00:15:05.912Z,94126.00
2022-12-27T00:17:32.419Z,94133.59
2022-12-27T00:19:58.997Z,94116.03
2022-12-27T00:22:25.509Z,94128.25
2022-12-27T00:24:52.781Z,94125.56
2022-12-27T00:27:20.091Z,94116.78
2022-12-27T00:29:46.622Z,94116.81
2022-12-27T00:32:15.392Z,94114.53
2022-12-27T00:34:41.943Z,94122.16
2022-12-27T00:37:08.468Z,94123.28
2022-12-27T00:39:34.952Z,94125.97
2022-12-27T00:42:01.401Z,94118.31
2022-12-27T00:44:27.925Z,94117.16
2022-12-27T00:46:54.364Z,94113.72
2022-12-27T00:49:20.869Z,94113.34
2022-12-27T00:51:47.483Z,94119.47
2022-12-27T00:54:14.122Z,94109.53
2022-12-27T00:56:40.574Z,94117.53
2022-12-27T00:59:07.124Z,94116.41
2022-12-27T01:01:34.965Z,94112.56
2022-12-27T01:04:02.073Z,94116.78
2022-12-27T01:06:29.686Z,94111.44
2022-12-27T01:08:56.886Z,94115.25
2022-12-27T01:11:24.509Z,94107.19
2022-12-27T01:13:51.093Z,94104.13
2022-12-27T01:16:19.478Z,94089.97
2022-12-27T01:18:46.577Z,94098.38
2022-12-27T01:21:14.873Z,94088.06
2022-12-27T01:23:43.455Z,94093.44
2022-12-27T01:26:14.441Z,94092.31
2022-12-27T01:28:40.926Z,94104.94
2022-12-27T01:31:08.301Z,94103.78
2022-12-27T01:33:34.877Z,94098.00
2022-12-27T01:36:30.713Z,94103.03
2022-12-27T01:38:57.761Z,94102.31
2022-12-27T01:41:44.577Z,94103.81
2022-12-27T01:44:29.573Z,94089.25
2022-12-27T01:46:56.160Z,94088.88
2022-12-27T01:49:22.664Z,94104.59
2022-12-27T01:51:49.235Z,94107.66
2022-12-27T01:54:15.816Z,94112.22
2022-12-27T01:56:43.323Z,94108.06
2022-12-27T01:59:10.749Z,94111.47
2022-12-27T02:01:43.208Z,94106.13
2022-12-27T02:04:11.905Z,94100.03
2022-12-27T02:06:39.264Z,94091.59
2022-12-27T02:09:11.544Z,94087.75
2022-12-27T02:11:51.146Z,94093.13
2022-12-27T02:14:31.840Z,94098.47
2022-12-27T02:16:59.578Z,94087.78
2022-12-27T02:19:41.181Z,94076.31
2022-12-27T02:22:28.037Z,94080.91
2022-12-27T02:25:00.996Z,94080.91
2022-12-27T02:27:39.615Z,94096.19
2022-12-27T02:30:06.706Z,94086.63
2022-12-27T02:32:44.318Z,94070.19
2022-12-27T02:35:13.616Z,94058.75
2022-12-27T02:37:44.369Z,94058.75
2022-12-27T02:40:30.304Z,94059.50
2022-12-27T02:43:15.609Z,94060.66
2022-12-27T02:46:29.944Z,94057.22
2022-12-27T02:49:16.063Z,94061.75
2022-12-27T02:52:04.172Z,94056.44
2022-12-27T02:54:49.608Z,94066.78
2022-12-27T02:57:36.061Z,94064.84
2022-12-27T03:00:23.108Z,94053.34
2022-12-27T03:03:07.824Z,94067.16
2022-12-27T03:06:12.670Z,94060.28
2022-12-27T03:08:49.197Z,94059.50
2022-12-27T03:11:34.427Z,94055.25
2022-12-27T03:14:36.190Z,94054.88
2022-12-27T03:17:05.841Z,94067.09
2022-12-27T03:19:59.283Z,94057.22
2022-12-27T03:22:46.448Z,94065.97
2022-12-27T03:25:29.420Z,94045.69
2022-12-27T03:28:18.778Z,94052.19
2022-12-27T03:31:05.498Z,94050.28
2022-12-27T03:33:32.804Z,94051.81
2022-12-27T03:36:19.472Z,94049.50
2022-12-27T03:39:06.210Z,94042.59
2022-12-27T03:42:11.571Z,94044.16
2022-12-27T03:44:38.347Z,94050.66
2022-12-27T03:47:25.099Z,94058.69
2022-12-27T03:50:11.782Z,94064.41
2022-12-27T03:52:43.300Z,94066.28
2022-12-27T03:55:10.855Z,94060.59
2022-12-27T03:57:39.831Z,94069.38
2022-12-27T04:00:06.685Z,94078.56
2022-12-27T04:02:33.409Z,94082.41
2022-12-27T04:05:00.088Z,94090.78
2022-12-27T04:07:26.595Z,94094.22
2022-12-27T04:10:13.595Z,94102.25
2022-12-27T04:12:58.988Z,94099.97
2022-12-27T04:15:44.288Z,94098.44
2022-12-27T04:18:29.636Z,94104.97
2022-12-27T04:21:14.763Z,94100.34
2022-12-27T04:24:01.990Z,94104.56
2022-12-27T04:26:47.785Z,94112.63
2022-12-27T04:29:32.985Z,94122.94
2022-12-27T04:32:18.257Z,94134.41
2022-12-27T04:34:44.793Z,94127.16
2022-12-27T04:37:13.357Z,94126.41
2022-12-27T04:39:39.882Z,94139.00
2022-12-27T04:42:24.710Z,94143.59
2022-12-27T04:45:14.869Z,94147.41
2022-12-27T04:48:02.305Z,94147.00
2022-12-27T04:50:49.035Z,94147.75
2022-12-27T04:53:37.532Z,94150.81
2022-12-27T04:56:04.654Z,94151.97
2022-12-27T04:58:33.744Z,94155.03
2022-12-27T05:01:20.496Z,94161.13
2022-12-27T05:03:48.923Z,94169.53
2022-12-27T05:06:15.577Z,94177.94
2022-12-27T05:09:00.926Z,94181.75
2022-12-27T05:11:45.762Z,94198.53
2022-12-27T05:14:14.285Z,94205.00
2022-12-27T05:16:41.779Z,94188.63
2022-12-27T05:19:09.602Z,94196.28
2022-12-27T05:21:37.002Z,94203.09
2022-12-27T05:24:23.641Z,94196.25
2022-12-27T05:26:50.389Z,94187.50
2022-12-27T05:29:17.116Z,94183.69
2022-12-27T05:31:43.755Z,94200.84
2022-12-27T05:34:12.497Z,94187.88
2022-12-27T05:36:39.025Z,94190.53
2022-12-27T05:39:05.521Z,94194.72
2022-12-27T05:41:31.965Z,94183.25
2022-12-27T05:44:03.287Z,94184.78
2022-12-27T05:46:33.282Z,94173.34
2022-12-27T05:48:59.865Z,94170.66
2022-12-27T05:51:26.456Z,94186.69
2022-12-27T05:53:53.011Z,94192.41
2022-12-27T05:56:21.070Z,94204.56
2022-12-27T05:58:48.104Z,94186.69
2022-12-27T06:01:16.196Z,94194.31
2022-12-27T06:03:42.941Z,94196.97
2022-12-27T06:06:09.953Z,94208.75
2022-12-27T06:08:36.981Z,94217.91
2022-12-27T06:11:03.816Z,94209.16
2022-12-27T06:13:30.443Z,94209.16
2022-12-27T06:16:00.267Z,94215.25
2022-12-27T06:18:34.317Z,94217.53
2022-12-27T06:21:26.660Z,94218.25
2022-12-27T06:23:53.126Z,94217.91
2022-12-27T06:26:24.040Z,94222.50
2022-12-27T06:28:51.398Z,94235.41
2022-12-27T06:31:18.842Z,94234.25
2022-12-27T06:33:46.221Z,94241.84
2022-12-27T06:36:14.092Z,94236.16
2022-12-27T06:38:40.921Z,94222.88
2022-12-27T06:41:10.361Z,94228.94
2022-12-27T06:43:36.882Z,94224.34
2022-12-27T06:46:04.662Z,94227.03
2022-12-27T06:48:33.771Z,94206.44
2022-12-27T06:51:03.533Z,94216.03
2022-12-27T06:53:30.164Z,94226.31
2022-12-27T06:55:56.678Z,94218.28
2022-12-27T06:58:23.208Z,94242.28
2022-12-27T07:00:49.884Z,94225.09
2022-12-27T07:03:16.484Z,94231.66
2022-12-27T07:05:43.883Z,94223.66
2022-12-27T07:08:10.477Z,94235.81
2022-12-27T07:10:37.583Z,94250.28
2022-12-27T07:13:04.100Z,94245.72
2022-12-27T07:15:30.748Z,94251.84
2022-12-27T07:17:57.268Z,94240.84
2022-12-27T07:20:23.704Z,94253.78
2022-12-27T07:22:50.308Z,94277.81
2022-12-27T07:25:16.845Z,94293.84
2022-12-27T07:27:45.237Z,94277.06
2022-12-27T07:30:11.831Z,94275.22
2022-12-27T07:32:38.291Z,94284.00
2022-12-27T07:35:05.045Z,94284.00
2022-12-27T07:37:31.492Z,94290.47
2022-12-27T07:39:58.857Z,94293.88
2022-12-27T07:42:25.382Z,94289.34
2022-12-27T07:44:51.969Z,94283.28
2022-12-27T07:47:18.491Z,94293.19
2022-12-27T07:49:45.058Z,94295.47
2022-12-27T07:52:11.564Z,94299.25
2022-12-27T07:54:38.097Z,94297.00
2022-12-27T07:57:04.753Z,94287.13
2022-12-27T07:59:31.231Z,94295.13
2022-12-27T08:02:06.879Z,94300.03
2022-12-27T08:04:35.618Z,94318.72
2022-12-27T08:07:07.759Z,94306.97
2022-12-27T08:09:36.600Z,94303.16
2022-12-27T08:12:03.179Z,94320.72
2022-12-27T08:14:29.684Z,94328.31
2022-12-27T08:17:03.902Z,94329.06
2022-12-27T08:19:30.547Z,94310.78
2022-12-27T08:21:57.175Z,94326.06
2022-12-27T08:24:24.617Z,94331.41
2022-12-27T08:26:51.149Z,94320.69
2022-12-27T08:29:17.591Z,94318.44
2022-12-27T08:31:44.147Z,94303.19
2022-12-27T08:34:10.690Z,94304.69
2022-12-27T08:36:54.840Z,94330.59
2022-12-27T08:39:22.013Z,94321.03
2022-12-27T08:41:48.582Z,94329.84
2022-12-27T08:44:15.114Z,94346.28
2022-12-27T08:46:41.703Z,94345.09
2022-12-27T08:49:08.253Z,94348.91
2022-12-27T08:51:40.774Z,94355.03
2022-12-27T08:54:08.186Z,94330.25
2022-12-27T08:56:34.745Z,94337.50
2022-12-27T08:59:01.353Z,94342.81
2022-12-27T09:01:28.047Z,94341.66
2022-12-27T09:03:54.846Z,94337.13
2022-12-27T09:06:23.266Z,94332.56
2022-12-27T09:08:50.700Z,94343.59
2022-12-27T09:11:19.244Z,94364.94
2022-12-27T09:13:45.884Z,94372.56
2022-12-27T09:16:14.599Z,94361.97
2022-12-27T09:18:42.051Z,94355.16
2022-12-27T09:21:12.192Z,94352.81
2022-12-27T09:23:40.783Z,94365.78
2022-12-27T09:26:08.881Z,94377.94
2022-12-27T09:28:38.052Z,94387.88
2022-12-27T09:31:04.793Z,94378.03
2022-12-27T09:33:32.048Z,94371.97
2022-12-27T09:36:09.786Z,94381.88
2022-12-27T09:38:37.107Z,94390.22
2022-12-27T09:41:19.281Z,94387.16
2022-12-27T09:43:50.895Z,94370.41
2022-12-27T09:46:21.102Z,94368.16
2022-12-27T09:48:49.064Z,94373.41
2022-12-27T09:51:21.656Z,94386.75
2022-12-27T09:53:48.204Z,94394.72
2022-12-27T09:56:23.220Z,94390.19
2022-12-27T09:58:52.897Z,94378.78
2022-12-27T10:01:23.585Z,94401.66
2022-12-27T10:03:51.388Z,94398.59
2022-12-27T10:06:29.533Z,94414.25
2022-12-27T10:09:18.546Z,94407.78
2022-12-27T10:11:53.970Z,94397.91
2022-12-27T10:14:20.642Z,94411.28
2022-12-27T10:17:05.737Z,94417.41
2022-12-27T10:19:38.392Z,94429.22
2022-12-27T10:22:23.666Z,94436.13
2022-12-27T10:24:59.385Z,94435.34
2022-12-27T10:27:27.936Z,94440.00
2022-12-27T10:29:55.711Z,94436.56
2022-12-27T10:32:22.558Z,94447.63
2022-12-27T10:34:53.614Z,94458.25
2022-12-27T10:37:20.105Z,94457.91
2022-12-27T10:39:46.593Z,94452.91
2022-12-27T10:42:15.922Z,94460.94
2022-12-27T10:44:42.627Z,94464.00
2022-12-27T10:47:09.263Z,94485.00
2022-12-27T10:49:37.304Z,94480.78
2022-12-27T10:52:09.102Z,94489.53
2022-12-27T10:54:37.470Z,94492.19
2022-12-27T10:57:17.979Z,94497.16
2022-12-27T10:59:44.490Z,94500.25
2022-12-27T11:02:18.422Z,94510.19
2022-12-27T11:04:56.149Z,94523.09
2022-12-27T11:07:25.312Z,94517.75
2022-12-27T11:10:04.219Z,94525.00
2022-12-27T11:12:32.979Z,94523.13
2022-12-27T11:15:00.955Z,94517.06
2022-12-27T11:17:30.275Z,94526.94
2022-12-27T11:19:58.389Z,94526.19
2022-12-27T11:22:25.807Z,94528.47
2022-12-27T11:24:54.631Z,94546.81
2022-12-27T11:27:23.354Z,94551.75
2022-12-27T11:29:51.602Z,94540.69
2022-12-27T11:32:22.124Z,94543.38
2022-12-27T11:34:49.745Z,94546.06
2022-12-27T11:37:19.500Z,94557.91
2022-12-27T11:39:55.053Z,94566.66
2022-12-27T11:42:38.451Z,94575.81
2022-12-27T11:45:23.571Z,94571.97
2022-12-27T11:47:59.288Z,94585.69
2022-12-27T11:50:31.792Z,94580.34
2022-12-27T11:52:59.994Z,94575.00
2022-12-27T11:55:46.723Z,94576.53
2022-12-27T11:58:13.136Z,94577.28
2022-12-27T12:00:45.792Z,94581.13
2022-12-27T12:03:31.271Z,94584.16
2022-12-27T12:06:34.157Z,94592.53
2022-12-27T12:09:12.835Z,94603.19
2022-12-27T12:11:59.645Z,94610.03
2022-12-27T12:14:44.847Z,94600.47
2022-12-27T12:17:29.856Z,94601.63
2022-12-27T12:20:08.011Z,94601.66
2022-12-27T12:22:43.220Z,94610.78
2022-12-27T12:25:20.073Z,94629.53
2022-12-27T12:27:56.152Z,94637.81
2022-12-27T12:30:34.608Z,94641.72
2022-12-27T12:33:19.908Z,94620.88
2022-12-27T12:35:46.536Z,94627.31
2022-12-27T12:38:20.120Z,94638.28
2022-12-27T12:40:52.664Z,94638.22
2022-12-27T12:43:19.082Z,94649.22
2022-12-27T12:45:48.633Z,94640.78
2022-12-27T12:48:24.418Z,94647.69
2022-12-27T12:50:52.879Z,94641.63
2022-12-27T12:53:22.105Z,94636.41
2022-12-27T12:56:00.600Z,94634.22
2022-12-27T12:58:36.163Z,94647.09
2022-12-27T13:01:14.270Z,94652.34
2022-12-27T13:03:50.908Z,94669.81
2022-12-27T13:06:36.883Z,94676.63
2022-12-27T13:09:12.362Z,94678.19
2022-12-27T13:11:38.827Z,94672.28
2022-12-27T13:14:05.602Z,94679.16
2022-12-27T13:16:32.149Z,94691.22
2022-12-27T13:19:13.924Z,94701.06
2022-12-27T13:21:52.632Z,94708.69
2022-12-27T13:24:31.356Z,94713.91
2022-12-27T13:27:06.052Z,94703.50
2022-12-27T13:29:46.102Z,94713.38
2022-12-27T13:32:22.460Z,94722.44
2022-12-27T13:35:01.044Z,94741.78
2022-12-27T13:37:27.480Z,94749.03
2022-12-27T13:40:16.029Z,94746.16
2022-12-27T13:43:01.362Z,94755.38
2022-12-27T13:45:47.217Z,94756.84
2022-12-27T13:48:20.174Z,94770.50
2022-12-27T13:50:55.671Z,94777.69
2022-12-27T13:53:34.476Z,94775.84
2022-12-27T13:56:51.470Z,94786.69
2022-12-27T13:59:11.457Z,94798.03
2022-12-27T14:01:48.753Z,94820.00
2022-12-27T14:04:42.679Z,94822.19
2022-12-27T14:07:29.984Z,94818.72
2022-12-27T14:10:04.003Z,94809.09
2022-12-27T14:12:50.706Z,94809.94
2022-12-27T14:15:19.130Z,94825.84
2022-12-27T14:17:45.547Z,94825.78
2022-12-27T14:20:30.278Z,94836.72
2022-12-27T14:23:15.242Z,94844.59
2022-12-27T14:26:00.418Z,94829.69
2022-12-27T14:28:41.775Z,94842.66
2022-12-27T14:31:20.447Z,94857.38
2022-12-27T14:34:05.486Z,94868.25
2022-12-27T14:36:44.253Z,94870.28
2022-12-27T14:39:20.401Z,94855.41
2022-12-27T14:42:05.674Z,94873.03
2022-12-27T14:44:37.985Z,94904.34
2022-12-27T14:47:25.633Z,94903.53
2022-12-27T14:50:10.754Z,94904.22
2022-12-27T14:52:46.376Z,94907.31
2022-12-27T14:55:26.304Z,94897.66
2022-12-27T14:57:57.975Z,94907.50
2022-12-27T15:00:25.882Z,94909.81
2022-12-27T15:02:52.901Z,94908.25
2022-12-27T15:05:23.272Z,94919.06
2022-12-27T15:07:49.775Z,94903.19
2022-12-27T15:10:31.766Z,94908.63
2022-12-27T15:13:00.027Z,94912.31
2022-12-27T15:15:26.532Z,94921.75
2022-12-27T15:18:12.052Z,94930.44
2022-12-27T15:20:41.410Z,94934.25
2022-12-27T15:23:14.040Z,94936.03
2022-12-27T15:25:54.975Z,94950.44
2022-12-27T15:28:50.765Z,94948.84
2022-12-27T15:31:36.139Z,94952.63
2022-12-27T15:34:07.565Z,94970.88
2022-12-27T15:36:43.619Z,94973.56
2022-12-27T15:39:30.985Z,94965.81
2022-12-27T15:42:17.830Z,94979.06
2022-12-27T15:44:56.418Z,94995.31
2022-12-27T15:47:40.753Z,94999.81
2022-12-27T15:50:16.558Z,94994.47
2022-12-27T15:52:53.304Z,94982.94
2022-12-27T15:55:23.055Z,94997.13
2022-12-27T15:57:52.366Z,95013.41
2022-12-27T16:00:31.096Z,95035.44
2022-12-27T16:03:05.458Z,95025.47
2022-12-27T16:05:49.014Z,95026.47
2022-12-27T16:08:25.468Z,95039.25
2022-12-27T16:10:53.909Z,95051.16
2022-12-27T16:13:23.297Z,95063.72
2022-12-27T16:15:52.264Z,95057.19
2022-12-27T16:18:19.011Z,95068.41
2022-12-27T16:20:55.907Z,95050.13
2022-12-27T16:23:26.779Z,95049.78
2022-12-27T16:26:05.274Z,95046.44
2022-12-27T16:28:33.877Z,95058.44
2022-12-27T16:31:01.729Z,95059.81
2022-12-27T16:33:33.576Z,95050.72
2022-12-27T16:36:15.283Z,95049.75
2022-12-27T16:38:52.409Z,95049.88
2022-12-27T16:41:19.009Z,95068.50
2022-12-27T16:43:52.437Z,95076.38
2022-12-27T16:46:31.399Z,95081.09
2022-12-27T16:48:57.927Z,95088.09
2022-12-27T16:51:33.143Z,95090.22
2022-12-27T16:54:04.734Z,95086.25
2022-12-27T16:56:39.054Z,95093.84
2022-12-27T16:59:25.520Z,95101.06
2022-12-27T17:01:52.843Z,95106.31
2022-12-27T17:04:38.552Z,95109.31
2022-12-27T17:07:05.164Z,95112.41
2022-12-27T17:09:39.408Z,95107.31
2022-12-27T17:12:10.728Z,95120.22
2022-12-27T17:14:38.419Z,95120.06
2022-12-27T17:17:10.592Z,95126.75
2022-12-27T17:19:44.862Z,95141.97
2022-12-27T17:22:13.880Z,95127.78
2022-12-27T17:24:42.613Z,95141.03
2022-12-27T17:27:17.740Z,95137.41
2022-12-27T17:30:02.924Z,95145.31
2022-12-27T17:32:50.377Z,95154.75
2022-12-27T17:35:28.556Z,95157.00
2022-12-27T17:38:13.714Z,95175.22
2022-12-27T17:40:51.484Z,95184.34
2022-12-27T17:43:42.715Z,95188.09
2022-12-27T17:46:15.587Z,95194.56
2022-12-27T17:48:42.501Z,95203.41
2022-12-27T17:51:14.169Z,95200.44
2022-12-27T17:54:09.488Z,95222.34
2022-12-27T17:57:05.301Z,95217.00
2022-12-27T17:59:32.965Z,95216.44
2022-12-27T18:02:04.255Z,95222.75
2022-12-27T18:04:36.000Z,95230.53
2022-12-27T18:07:03.912Z,95239.88
2022-12-27T18:09:35.620Z,95248.56
2022-12-27T18:12:03.513Z,95243.22
2022-12-27T18:14:33.830Z,95250.78
2022-12-27T18:17:00.704Z,95255.59
2022-12-27T18:19:31.196Z,95267.59
2022-12-27T18:22:01.920Z,95271.19
2022-12-27T18:24:30.753Z,95278.75
2022-12-27T18:27:07.316Z,95266.56
2022-12-27T18:29:34.429Z,95284.75
2022-12-27T18:32:03.743Z,95281.97
2022-12-27T18:34:36.366Z,95276.13
2022-12-27T18:37:06.989Z,95288.13
2022-12-27T18:39:36.552Z,95294.94
2022-12-27T18:42:07.688Z,95304.03
2022-12-27T18:44:40.317Z,95314.69
2022-12-27T18:47:06.921Z,95317.34
2022-12-27T18:49:34.984Z,95314.25
2022-12-27T18:52:02.496Z,95315.66
2022-12-27T18:54:29.031Z,95327.34
2022-12-27T18:56:56.779Z,95338.44
2022-12-27T18:59:26.403Z,95351.13
2022-12-27T19:01:54.315Z,95353.78
2022-12-27T19:04:24.466Z,95355.31
2022-12-27T19:06:58.056Z,95357.75
2022-12-27T19:09:31.051Z,95380.59
2022-12-27T19:12:20.527Z,95377.06
2022-12-27T19:14:47.474Z,95391.06
2022-12-27T19:17:18.594Z,95394.03
2022-12-27T19:19:48.537Z,95413.00
2022-12-27T19:22:33.425Z,95419.00
2022-12-27T19:25:00.633Z,95428.09
2022-12-27T19:27:27.158Z,95423.66
2022-12-27T19:29:53.713Z,95428.06
2022-12-27T19:32:28.869Z,95438.28
2022-12-27T19:34:57.655Z,95461.72
2022-12-27T19:37:28.030Z,95471.78
2022-12-27T19:39:54.877Z,95486.88
2022-12-27T19:42:27.062Z,95501.06
2022-12-27T19:44:53.539Z,95511.91
2022-12-27T19:47:20.084Z,95506.03
2022-12-27T19:49:46.602Z,95512.38
2022-12-27T19:52:18.165Z,95513.69
2022-12-27T19:54:45.027Z,95531.00
2022-12-27T19:57:14.938Z,95538.66
2022-12-27T19:59:41.727Z,95547.16
2022-12-27T20:02:08.703Z,95555.34
2022-12-27T20:04:36.292Z,95555.44
2022-12-27T20:07:03.151Z,95554.66
2022-12-27T20:09:29.777Z,95553.09
2022-12-27T20:11:56.373Z,95550.34
2022-12-27T20:14:22.877Z,95557.78
2022-12-27T20:16:49.967Z,95559.53
2022-12-27T20:19:18.098Z,95575.69
2022-12-27T20:21:44.766Z,95576.34
2022-12-27T20:24:12.384Z,95572.56
2022-12-27T20:26:39.193Z,95564.28
2022-12-27T20:29:05.780Z,95577.78
2022-12-27T20:31:42.204Z,95575.69
2022-12-27T20:34:11.171Z,95585.69
2022-12-27T20:36:39.900Z,95596.19
2022-12-27T20:39:07.678Z,95592.94
2022-12-27T20:41:34.379Z,95606.91
2022-12-27T20:44:01.060Z,95612.88
2022-12-27T20:46:28.002Z,95609.91
2022-12-27T20:48:54.922Z,95618.66
2022-12-27T20:51:22.887Z,95618.66
2022-12-27T20:53:53.512Z,95623.72
2022-12-27T20:56:20.015Z,95641.28
2022-12-27T20:58:46.529Z,95643.44
2022-12-27T21:01:17.676Z,95639.16
2022-12-27T21:03:45.136Z,95649.03
2022-12-27T21:06:13.936Z,95668.59
2022-12-27T21:08:46.489Z,95672.22
2022-12-27T21:11:16.216Z,95685.69
2022-12-27T21:13:46.172Z,95697.31
2022-12-27T21:16:14.201Z,95703.44
2022-12-27T21:18:41.874Z,95701.41
2022-12-27T21:21:11.337Z,95701.53
2022-12-27T21:23:37.961Z,95701.22
2022-12-27T21:26:08.971Z,95712.03
2022-12-27T21:28:36.255Z,95722.03
2022-12-27T21:31:03.082Z,95719.38
2022-12-27T21:33:29.844Z,95716.06
2022-12-27T21:35:56.394Z,95728.91
2022-12-27T21:38:25.161Z,95731.13
2022-12-27T21:40:57.549Z,95740.38
2022-12-27T21:43:24.091Z,95746.00
2022-12-27T21:45:53.220Z,95736.16
2022-12-27T21:48:19.879Z,95745.84
2022-12-27T21:50:46.792Z,95753.38
2022-12-27T21:53:19.649Z,95757.13
2022-12-27T21:55:46.188Z,95763.25
2022-12-27T21:58:12.817Z,95757.00
2022-12-27T22:00:39.893Z,95762.81
2022-12-27T22:03:06.831Z,95762.63
2022-12-27T22:05:34.163Z,95759.81
2022-12-27T22:08:00.751Z,95781.09
2022-12-27T22:10:27.327Z,95791.25
2022-12-27T22:12:56.119Z,95801.72
2022-12-27T22:15:22.730Z,95827.84
2022-12-27T22:17:49.683Z,95814.75
2022-12-27T22:20:16.338Z,95822.72
2022-12-27T22:22:42.883Z,95827.69
2022-12-27T22:25:09.670Z,95830.38
2022-12-27T22:27:36.252Z,95822.56
2022-12-27T22:30:02.957Z,95823.19
2022-12-27T22:32:29.432Z,95810.38
2022-12-27T22:34:55.892Z,95810.22
2022-12-27T22:37:22.342Z,95806.31
2022-12-27T22:39:50.925Z,95798.03
2022-12-27T22:42:19.450Z,95794.13
2022-12-27T22:44:45.949Z,95782.34
2022-12-27T22:47:28.497Z,95793.91
2022-12-27T22:49:55.181Z,95793.75
2022-12-27T22:52:21.772Z,95814.44
2022-12-27T22:55:04.259Z,95806.31
2022-12-27T22:57:35.322Z,95803.03
2022-12-27T23:00:01.960Z,95798.97
2022-12-27T23:02:28.591Z,95783.75
2022-12-27T23:04:56.010Z,95784.84
2022-12-27T23:08:04.755Z,95797.25
2022-12-27T23:10:09.643Z,95837.59
2022-12-27T23:12:36.237Z,95819.78
2022-12-27T23:15:02.684Z,95811.38
2022-12-27T23:17:29.547Z,95812.47
2022-12-27T23:19:55.980Z,95814.97
2022-12-27T23:22:22.593Z,95810.44
2022-12-27T23:24:49.185Z,95817.16
2022-12-27T23:27:15.637Z,95822.63
2022-12-27T23:29:42.122Z,95823.72
2022-12-27T23:32:08.571Z,95823.69
2022-12-27T23:34:35.110Z,95835.09
2022-12-27T23:37:01.648Z,95830.56
2022-12-27T23:39:28.367Z,95833.53
2022-12-27T23:41:55.130Z,95834.63
2022-12-27T23:44:33.892Z,95822.31
2022-12-27T23:47:01.916Z,95807.94
2022-12-27T23:49:28.396Z,95820.72
2022-12-27T23:51:54.860Z,95797.47
2022-12-27T23:54:21.361Z,95801.22
2022-12-27T23:56:47.870Z,95802.28
2022-12-27T23:59:14.493Z,95788.88
